Hakuhomaru — JJ4011 — position and weather

sailwx.info

Track history (hours):
 
Tides and Currents Weather Stations Pressure Air Temp Water Temp Dewpoint Dewpoint Depression Visibility Wind Speed Wind Dir Waves Ship Positions

Hakuhomaru

Last reported at 2015-Jul-04 07:05 UTC. Time now 2015-Jul-04 19:00 UTC.
Position N 34°41' E 135°12'.

Length 38 m; draft 3.3 m.

Type: Tug. MMSI: 431401584.

Date/timePositionNaut miles runAvg speedWind from/ knotsBaromVisibWave heightAir tempDewpointWater temp
2015-Jul-04 07:05N 34°41' E 135°12'3 6.5
2015-Jul-04 06:33N 34°42' E 135°16'3 3.5
2015-Jul-04 05:33N 34°41' E 135°12'0 0.0
2015-Jul-04 04:33N 34°41' E 135°12'0 0.0
2015-Jul-04 03:33N 34°41' E 135°12'0 0.0
2015-Jul-04 02:33N 34°41' E 135°12'0 0.0
2015-Jul-04 01:33N 34°41' E 135°12'0 0.0
2015-Jul-04 00:33N 34°41' E 135°12'0 0.0
2015-Jul-03 23:33N 34°41' E 135°12'0 0.0
2015-Jul-03 06:33N 34°41' E 135°12'0 0.0
2015-Jul-03 05:33N 34°41' E 135°12'0 0.0
2015-Jul-03 04:33N 34°41' E 135°12'0 0.0
2015-Jul-03 03:33N 34°41' E 135°12'0 0.0
2015-Jul-03 02:33N 34°41' E 135°12'0 0.0
2015-Jul-03 01:33N 34°41' E 135°12'0 0.0
2015-Jul-03 00:33N 34°41' E 135°12'0 0.0
2015-Jul-02 23:33N 34°41' E 135°12'3 3.0
2015-Jul-02 22:33N 34°41' E 135°16'2 1.8
2015-Jul-02 21:33N 34°41' E 135°14'1 1.2
2015-Jul-02 20:33N 34°41' E 135°12'0 0.0
2015-Jul-02 07:33N 34°41' E 135°12'3 3.2
2015-Jul-02 06:33N 34°42' E 135°16'3 3.2
2015-Jul-02 05:33N 34°41' E 135°12'0 0.0
2015-Jul-02 04:33N 34°41' E 135°12'0 0.0
2015-Jul-02 03:33N 34°41' E 135°12'0 0.0
2015-Jul-02 02:33N 34°41' E 135°12'0 0.0
2015-Jul-02 01:33N 34°41' E 135°12'0 0.0
2015-Jul-02 00:33N 34°41' E 135°12'2 2.0
2015-Jul-01 23:33N 34°40' E 135°15'2 1.7
2015-Jul-01 22:33N 34°39' E 135°16'4 3.7
2015-Jul-01 21:33N 34°41' E 135°12'0 0.0
2015-Jul-01 20:33N 34°41' E 135°12'0 0.0
2015-Jul-01 11:22N 34°41' E 135°12'5 5.9
2015-Jul-01 10:33N 34°42' E 135°18'3 3.1
2015-Jul-01 09:33N 34°41' E 135°14'0 0.0
2015-Jul-01 08:33N 34°41' E 135°14'2 1.8
2015-Jul-01 07:33N 34°39' E 135°15'0 0.2
2015-Jul-01 06:33N 34°39' E 135°15'2 1.5
2015-Jul-01 05:33N 34°40' E 135°13'0 0.0
2015-Jul-01 04:33N 34°40' E 135°13'0 0.0
2015-Jul-01 03:33N 34°40' E 135°13'0 0.0
2015-Jul-01 02:33N 34°40' E 135°13'2 2.2
2015-Jul-01 01:33N 34°41' E 135°16'0 0.3
2015-Jul-01 00:33N 34°40' E 135°16'1 0.8
2015-Jun-30 23:33N 34°40' E 135°15'2 1.7
2015-Jun-30 22:33N 34°42' E 135°14'2 1.8
2015-Jun-30 21:33N 34°40' E 135°15'2 2.2
2015-Jun-30 20:33N 34°41' E 135°12'0 0.0
2015-Jun-29 15:28N 34°41' E 135°12'2 2.7
2015-Jun-29 14:33N 34°41' E 135°15'0 0.0
2015-Jun-29 13:33N 34°41' E 135°15'0 0.0
2015-Jun-29 12:33N 34°41' E 135°15'0 0.0
2015-Jun-29 11:33N 34°41' E 135°15'1 1.4
2015-Jun-29 10:33N 34°40' E 135°14'1 1.0
2015-Jun-29 09:33N 34°40' E 135°13'0 0.2
2015-Jun-29 08:33N 34°40' E 135°13'3 3.4
2015-Jun-29 07:33N 34°42' E 135°17'4 3.5
2015-Jun-29 06:33N 34°40' E 135°13'0 0.0
2015-Jun-29 05:32N 34°40' E 135°13'4 3.6
2015-Jun-29 04:33N 34°41' E 135°17'4 3.9
2015-Jun-29 03:33N 34°41' E 135°13'0 0.0
2015-Jun-29 02:33N 34°41' E 135°13'0 0.0
2015-Jun-29 01:33N 34°41' E 135°13'1 1.3
2015-Jun-29 00:33N 34°40' E 135°14'1 0.9
2015-Jun-28 23:33N 34°40' E 135°15'0 0.0
2015-Jun-28 22:33N 34°40' E 135°15'0 0.2
2015-Jun-28 21:33N 34°40' E 135°15'2 2.1
2015-Jun-28 20:33N 34°41' E 135°12'2 0.2
2015-Jun-28 07:33N 34°40' E 135°15'9 8.5
2015-Jun-28 06:33N 34°37' E 135°25'6 6.5
2015-Jun-28 05:33N 34°38' E 135°17'4 4.5
2015-Jun-28 04:33N 34°41' E 135°12'0 0.0
2015-Jun-28 03:33N 34°41' E 135°12'0 0.0
2015-Jun-28 02:33N 34°41' E 135°12'0 0.0
2015-Jun-28 01:33N 34°41' E 135°12'0 0.0
2015-Jun-28 00:33N 34°41' E 135°12'0 0.0
2015-Jun-27 23:33N 34°41' E 135°12'0 0.0
2015-Jun-27 07:34N 34°41' E 135°12'4 3.8
2015-Jun-27 06:33N 34°41' E 135°17'4 3.9
2015-Jun-27 05:34N 34°41' E 135°12'0 0.0
2015-Jun-27 04:33N 34°41' E 135°12'0 0.0
2015-Jun-27 03:34N 34°41' E 135°12'0 0.0
2015-Jun-27 02:33N 34°41' E 135°12'0 0.0
2015-Jun-27 01:34N 34°41' E 135°12'0 0.0
2015-Jun-27 00:34N 34°41' E 135°12'0 0.0
2015-Jun-26 23:33N 34°41' E 135°12'1 1.2
2015-Jun-26 22:34N 34°40' E 135°14'1 0.8
2015-Jun-26 21:34N 34°40' E 135°15'2 1.9
2015-Jun-26 20:33N 34°41' E 135°12'0 0.0
2015-Jun-26 11:17N 34°41' E 135°12'2 3.3
2015-Jun-26 10:33N 34°42' E 135°15'1 0.8
2015-Jun-26 09:33N 34°41' E 135°14'1 0.8
2015-Jun-26 08:33N 34°40' E 135°15'2 2.0
2015-Jun-26 07:33N 34°41' E 135°12'0 0.3
2015-Jun-26 06:33N 34°41' E 135°12'0 0.0
2015-Jun-26 05:33N 34°41' E 135°12'0 0.0
2015-Jun-26 04:33N 34°41' E 135°12'0 0.0
2015-Jun-26 03:33N 34°41' E 135°12'0 0.0
2015-Jun-26 02:33N 34°41' E 135°12'0 0.0
2015-Jun-26 01:33N 34°41' E 135°12'2 1.8
2015-Jun-26 00:33N 34°41' E 135°14'2 2.1
2015-Jun-25 23:33N 34°41' E 135°17'2 1.7
2015-Jun-25 22:33N 34°40' E 135°18'4 4.5
2015-Jun-25 21:33N 34°41' E 135°12'0 0.0
2015-Jun-25 11:33N 34°41' E 135°12'4 4.0
2015-Jun-25 10:33N 34°41' E 135°17'1 1.2
2015-Jun-25 09:33N 34°42' E 135°15'1 1.2
2015-Jun-25 08:33N 34°41' E 135°17'4 3.9
2015-Jun-25 07:33N 34°41' E 135°12'0 0.0
2015-Jun-25 06:33N 34°41' E 135°12'0 0.0
2015-Jun-25 05:33N 34°41' E 135°12'4 4.0
2015-Jun-25 04:33N 34°42' E 135°17'2 1.8
2015-Jun-25 03:33N 34°40' E 135°18'1 0.7
2015-Jun-25 02:33N 34°41' E 135°17'4 3.8
2015-Jun-25 01:33N 34°41' E 135°13'0 0.0
2015-Jun-25 00:33N 34°41' E 135°13'0 0.0
2015-Jun-24 23:33N 34°41' E 135°13'4 3.5
2015-Jun-24 22:33N 34°42' E 135°17'3 2.6
2015-Jun-24 21:33N 34°41' E 135°14'2 1.6
2015-Jun-24 20:33N 34°41' E 135°12'0 0.0
2015-Jun-24 11:18N 34°41' E 135°12'3 4.2
2015-Jun-24 10:33N 34°42' E 135°16'1 0.6
2015-Jun-24 09:33N 34°42' E 135°15'2 1.9
2015-Jun-24 08:33N 34°41' E 135°17'0 0.2
2015-Jun-24 07:33N 34°41' E 135°17'  
Track history (hours):
 
Tides and Currents Weather Stations Pressure Air Temp Water Temp Dewpoint Dewpoint Depression Visibility Wind Speed Wind Dir Waves Ship Positions

Hakuhomaru

Last reported at 2015-Jul-04 07:05 UTC. Time now 2015-Jul-04 19:00 UTC.
Position N 34°41' E 135°12'.

Length 38 m; draft 3.3 m.

Type: Tug. MMSI: 431401584.

Date/timePositionNaut miles runAvg speedWind from/ knotsBaromVisibWave heightAir tempDewpointWater temp
2015-Jul-04 07:05N 34°41' E 135°12'3 6.5
2015-Jul-04 06:33N 34°42' E 135°16'3 3.5
2015-Jul-04 05:33N 34°41' E 135°12'0 0.0
2015-Jul-04 04:33N 34°41' E 135°12'0 0.0
2015-Jul-04 03:33N 34°41' E 135°12'0 0.0
2015-Jul-04 02:33N 34°41' E 135°12'0 0.0
2015-Jul-04 01:33N 34°41' E 135°12'0 0.0
2015-Jul-04 00:33N 34°41' E 135°12'0 0.0
2015-Jul-03 23:33N 34°41' E 135°12'0 0.0
2015-Jul-03 06:33N 34°41' E 135°12'0 0.0
2015-Jul-03 05:33N 34°41' E 135°12'0 0.0
2015-Jul-03 04:33N 34°41' E 135°12'0 0.0
2015-Jul-03 03:33N 34°41' E 135°12'0 0.0
2015-Jul-03 02:33N 34°41' E 135°12'0 0.0
2015-Jul-03 01:33N 34°41' E 135°12'0 0.0
2015-Jul-03 00:33N 34°41' E 135°12'0 0.0
2015-Jul-02 23:33N 34°41' E 135°12'3 3.0
2015-Jul-02 22:33N 34°41' E 135°16'2 1.8
2015-Jul-02 21:33N 34°41' E 135°14'1 1.2
2015-Jul-02 20:33N 34°41' E 135°12'0 0.0
2015-Jul-02 07:33N 34°41' E 135°12'3 3.2
2015-Jul-02 06:33N 34°42' E 135°16'3 3.2
2015-Jul-02 05:33N 34°41' E 135°12'0 0.0
2015-Jul-02 04:33N 34°41' E 135°12'0 0.0
2015-Jul-02 03:33N 34°41' E 135°12'0 0.0
2015-Jul-02 02:33N 34°41' E 135°12'0 0.0
2015-Jul-02 01:33N 34°41' E 135°12'0 0.0
2015-Jul-02 00:33N 34°41' E 135°12'2 2.0
2015-Jul-01 23:33N 34°40' E 135°15'2 1.7
2015-Jul-01 22:33N 34°39' E 135°16'4 3.7
2015-Jul-01 21:33N 34°41' E 135°12'0 0.0
2015-Jul-01 20:33N 34°41' E 135°12'0 0.0
2015-Jul-01 11:22N 34°41' E 135°12'5 5.9
2015-Jul-01 10:33N 34°42' E 135°18'3 3.1
2015-Jul-01 09:33N 34°41' E 135°14'0 0.0
2015-Jul-01 08:33N 34°41' E 135°14'2 1.8
2015-Jul-01 07:33N 34°39' E 135°15'0 0.2
2015-Jul-01 06:33N 34°39' E 135°15'2 1.5
2015-Jul-01 05:33N 34°40' E 135°13'0 0.0
2015-Jul-01 04:33N 34°40' E 135°13'0 0.0
2015-Jul-01 03:33N 34°40' E 135°13'0 0.0
2015-Jul-01 02:33N 34°40' E 135°13'2 2.2
2015-Jul-01 01:33N 34°41' E 135°16'0 0.3
2015-Jul-01 00:33N 34°40' E 135°16'1 0.8
2015-Jun-30 23:33N 34°40' E 135°15'2 1.7
2015-Jun-30 22:33N 34°42' E 135°14'2 1.8
2015-Jun-30 21:33N 34°40' E 135°15'2 2.2
2015-Jun-30 20:33N 34°41' E 135°12'0 0.0
2015-Jun-29 15:28N 34°41' E 135°12'2 2.7
2015-Jun-29 14:33N 34°41' E 135°15'0 0.0
2015-Jun-29 13:33N 34°41' E 135°15'0 0.0
2015-Jun-29 12:33N 34°41' E 135°15'0 0.0
2015-Jun-29 11:33N 34°41' E 135°15'1 1.4
2015-Jun-29 10:33N 34°40' E 135°14'1 1.0
2015-Jun-29 09:33N 34°40' E 135°13'0 0.2
2015-Jun-29 08:33N 34°40' E 135°13'3 3.4
2015-Jun-29 07:33N 34°42' E 135°17'4 3.5
2015-Jun-29 06:33N 34°40' E 135°13'0 0.0
2015-Jun-29 05:32N 34°40' E 135°13'4 3.6
2015-Jun-29 04:33N 34°41' E 135°17'4 3.9
2015-Jun-29 03:33N 34°41' E 135°13'0 0.0
2015-Jun-29 02:33N 34°41' E 135°13'0 0.0
2015-Jun-29 01:33N 34°41' E 135°13'1 1.3
2015-Jun-29 00:33N 34°40' E 135°14'1 0.9
2015-Jun-28 23:33N 34°40' E 135°15'0 0.0
2015-Jun-28 22:33N 34°40' E 135°15'0 0.2
2015-Jun-28 21:33N 34°40' E 135°15'2 2.1
2015-Jun-28 20:33N 34°41' E 135°12'2 0.2
2015-Jun-28 07:33N 34°40' E 135°15'9 8.5
2015-Jun-28 06:33N 34°37' E 135°25'6 6.5
2015-Jun-28 05:33N 34°38' E 135°17'4 4.5
2015-Jun-28 04:33N 34°41' E 135°12'0 0.0
2015-Jun-28 03:33N 34°41' E 135°12'0 0.0
2015-Jun-28 02:33N 34°41' E 135°12'0 0.0
2015-Jun-28 01:33N 34°41' E 135°12'0 0.0
2015-Jun-28 00:33N 34°41' E 135°12'0 0.0
2015-Jun-27 23:33N 34°41' E 135°12'0 0.0
2015-Jun-27 07:34N 34°41' E 135°12'4 3.8
2015-Jun-27 06:33N 34°41' E 135°17'4 3.9
2015-Jun-27 05:34N 34°41' E 135°12'0 0.0
2015-Jun-27 04:33N 34°41' E 135°12'0 0.0
2015-Jun-27 03:34N 34°41' E 135°12'0 0.0
2015-Jun-27 02:33N 34°41' E 135°12'0 0.0
2015-Jun-27 01:34N 34°41' E 135°12'0 0.0
2015-Jun-27 00:34N 34°41' E 135°12'0 0.0
2015-Jun-26 23:33N 34°41' E 135°12'1 1.2
2015-Jun-26 22:34N 34°40' E 135°14'1 0.8
2015-Jun-26 21:34N 34°40' E 135°15'2 1.9
2015-Jun-26 20:33N 34°41' E 135°12'0 0.0
2015-Jun-26 11:17N 34°41' E 135°12'2 3.3
2015-Jun-26 10:33N 34°42' E 135°15'1 0.8
2015-Jun-26 09:33N 34°41' E 135°14'1 0.8
2015-Jun-26 08:33N 34°40' E 135°15'2 2.0
2015-Jun-26 07:33N 34°41' E 135°12'0 0.3
2015-Jun-26 06:33N 34°41' E 135°12'0 0.0
2015-Jun-26 05:33N 34°41' E 135°12'0 0.0
2015-Jun-26 04:33N 34°41' E 135°12'0 0.0
2015-Jun-26 03:33N 34°41' E 135°12'0 0.0
2015-Jun-26 02:33N 34°41' E 135°12'0 0.0
2015-Jun-26 01:33N 34°41' E 135°12'2 1.8
2015-Jun-26 00:33N 34°41' E 135°14'2 2.1
2015-Jun-25 23:33N 34°41' E 135°17'2 1.7
2015-Jun-25 22:33N 34°40' E 135°18'4 4.5
2015-Jun-25 21:33N 34°41' E 135°12'0 0.0
2015-Jun-25 11:33N 34°41' E 135°12'4 4.0
2015-Jun-25 10:33N 34°41' E 135°17'1 1.2
2015-Jun-25 09:33N 34°42' E 135°15'1 1.2
2015-Jun-25 08:33N 34°41' E 135°17'4 3.9
2015-Jun-25 07:33N 34°41' E 135°12'0 0.0
2015-Jun-25 06:33N 34°41' E 135°12'0 0.0
2015-Jun-25 05:33N 34°41' E 135°12'4 4.0
2015-Jun-25 04:33N 34°42' E 135°17'2 1.8
2015-Jun-25 03:33N 34°40' E 135°18'1 0.7
2015-Jun-25 02:33N 34°41' E 135°17'4 3.8
2015-Jun-25 01:33N 34°41' E 135°13'0 0.0
2015-Jun-25 00:33N 34°41' E 135°13'0 0.0
2015-Jun-24 23:33N 34°41' E 135°13'4 3.5
2015-Jun-24 22:33N 34°42' E 135°17'3 2.6
2015-Jun-24 21:33N 34°41' E 135°14'2 1.6
2015-Jun-24 20:33N 34°41' E 135°12'0 0.0
2015-Jun-24 11:18N 34°41' E 135°12'3 4.2
2015-Jun-24 10:33N 34°42' E 135°16'1 0.6
2015-Jun-24 09:33N 34°42' E 135°15'2 1.9
2015-Jun-24 08:33N 34°41' E 135°17'0 0.2
2015-Jun-24 07:33N 34°41' E 135°17'  

Dump ship's entire track history